sensor_id;sensor_type;location;lat;lon;timestamp;temperature;humidity
29551;DHT22;16488;52.396;10.696;2024-01-30T00:00:34;0.80;99.90
29551;DHT22;16488;52.396;10.696;2024-01-30T00:03:00;0.80;99.90
29551;DHT22;16488;52.396;10.696;2024-01-30T00:05:25;0.90;99.90
29551;DHT22;16488;52.396;10.696;2024-01-30T00:07:51;0.90;99.90
29551;DHT22;16488;52.396;10.696;2024-01-30T00:10:17;0.90;99.90
29551;DHT22;16488;52.396;10.696;2024-01-30T00:12:42;0.80;99.90
29551;DHT22;16488;52.396;10.696;2024-01-30T00:15:08;0.70;99.90
29551;DHT22;16488;52.396;10.696;2024-01-30T00:17:35;0.70;99.90
29551;DHT22;16488;52.396;10.696;2024-01-30T00:20:01;0.70;99.90
29551;DHT22;16488;52.396;10.696;2024-01-30T00:22:31;0.70;99.90
29551;DHT22;16488;52.396;10.696;2024-01-30T00:24:56;0.70;99.90
29551;DHT22;16488;52.396;10.696;2024-01-30T00:27:22;0.70;99.90
29551;DHT22;16488;52.396;10.696;2024-01-30T00:29:47;0.80;99.90
29551;DHT22;16488;52.396;10.696;2024-01-30T00:32:13;0.80;99.90
29551;DHT22;16488;52.396;10.696;2024-01-30T00:34:38;0.80;99.90
29551;DHT22;16488;52.396;10.696;2024-01-30T00:37:04;0.80;99.90
29551;DHT22;16488;52.396;10.696;2024-01-30T00:39:29;0.70;99.90
29551;DHT22;16488;52.396;10.696;2024-01-30T00:41:55;0.70;99.90
29551;DHT22;16488;52.396;10.696;2024-01-30T00:44:20;0.60;99.90
29551;DHT22;16488;52.396;10.696;2024-01-30T00:46:46;0.60;99.90
29551;DHT22;16488;52.396;10.696;2024-01-30T00:49:11;0.60;99.90
29551;DHT22;16488;52.396;10.696;2024-01-30T00:51:37;0.60;99.90
29551;DHT22;16488;52.396;10.696;2024-01-30T00:54:03;0.60;99.90
29551;DHT22;16488;52.396;10.696;2024-01-30T00:56:28;0.50;99.90
29551;DHT22;16488;52.396;10.696;2024-01-30T00:58:54;0.50;99.90
29551;DHT22;16488;52.396;10.696;2024-01-30T01:01:19;0.40;99.90
29551;DHT22;16488;52.396;10.696;2024-01-30T01:03:45;0.40;99.90
29551;DHT22;16488;52.396;10.696;2024-01-30T01:06:11;0.50;99.90
29551;DHT22;16488;52.396;10.696;2024-01-30T01:08:36;0.60;99.90
29551;DHT22;16488;52.396;10.696;2024-01-30T01:11:02;0.70;99.90
29551;DHT22;16488;52.396;10.696;2024-01-30T01:13:28;0.80;99.90
29551;DHT22;16488;52.396;10.696;2024-01-30T01:15:54;0.90;99.90
29551;DHT22;16488;52.396;10.696;2024-01-30T01:18:20;1.00;99.90
29551;DHT22;16488;52.396;10.696;2024-01-30T01:20:45;1.10;99.90
29551;DHT22;16488;52.396;10.696;2024-01-30T01:23:11;1.10;99.90
29551;DHT22;16488;52.396;10.696;2024-01-30T01:25:36;0.90;99.90
29551;DHT22;16488;52.396;10.696;2024-01-30T01:28:02;0.80;99.90
29551;DHT22;16488;52.396;10.696;2024-01-30T01:30:29;0.70;99.90
29551;DHT22;16488;52.396;10.696;2024-01-30T01:32:55;0.60;99.90
29551;DHT22;16488;52.396;10.696;2024-01-30T01:35:22;0.50;99.90
29551;DHT22;16488;52.396;10.696;2024-01-30T01:37:50;0.40;99.90
29551;DHT22;16488;52.396;10.696;2024-01-30T01:40:23;0.50;99.90
29551;DHT22;16488;52.396;10.696;2024-01-30T01:42:49;0.50;99.90
29551;DHT22;16488;52.396;10.696;2024-01-30T01:45:15;0.60;99.90
29551;DHT22;16488;52.396;10.696;2024-01-30T01:47:41;0.70;99.90
29551;DHT22;16488;52.396;10.696;2024-01-30T01:50:07;0.80;99.90
29551;DHT22;16488;52.396;10.696;2024-01-30T01:52:32;0.80;99.90
29551;DHT22;16488;52.396;10.696;2024-01-30T01:54:58;0.90;99.90
29551;DHT22;16488;52.396;10.696;2024-01-30T01:57:24;1.00;99.90
29551;DHT22;16488;52.396;10.696;2024-01-30T01:59:50;1.00;99.90
29551;DHT22;16488;52.396;10.696;2024-01-30T02:02:15;1.00;99.90
29551;DHT22;16488;52.396;10.696;2024-01-30T02:04:43;0.90;99.90
29551;DHT22;16488;52.396;10.696;2024-01-30T02:07:09;0.90;99.90
29551;DHT22;16488;52.396;10.696;2024-01-30T02:09:34;0.90;99.90
29551;DHT22;16488;52.396;10.696;2024-01-30T02:12:00;0.80;99.90
29551;DHT22;16488;52.396;10.696;2024-01-30T02:14:26;0.80;99.90
29551;DHT22;16488;52.396;10.696;2024-01-30T02:16:51;0.80;99.90
29551;DHT22;16488;52.396;10.696;2024-01-30T02:19:17;0.60;99.90
29551;DHT22;16488;52.396;10.696;2024-01-30T02:21:43;0.50;99.90
29551;DHT22;16488;52.396;10.696;2024-01-30T02:24:09;0.30;99.90
29551;DHT22;16488;52.396;10.696;2024-01-30T02:26:34;0.30;99.90
29551;DHT22;16488;52.396;10.696;2024-01-30T02:29:00;0.20;99.90
29551;DHT22;16488;52.396;10.696;2024-01-30T02:31:26;0.30;99.90
29551;DHT22;16488;52.396;10.696;2024-01-30T02:33:51;0.40;99.90
29551;DHT22;16488;52.396;10.696;2024-01-30T02:36:17;0.40;99.90
29551;DHT22;16488;52.396;10.696;2024-01-30T02:38:42;0.30;99.90
29551;DHT22;16488;52.396;10.696;2024-01-30T02:41:08;0.30;99.90
29551;DHT22;16488;52.396;10.696;2024-01-30T02:43:33;0.30;99.90
29551;DHT22;16488;52.396;10.696;2024-01-30T02:45:59;0.40;99.90
29551;DHT22;16488;52.396;10.696;2024-01-30T02:48:26;0.30;99.90
29551;DHT22;16488;52.396;10.696;2024-01-30T02:50:52;0.20;99.90
29551;DHT22;16488;52.396;10.696;2024-01-30T02:53:17;0.20;99.90
29551;DHT22;16488;52.396;10.696;2024-01-30T02:55:43;0.20;99.90
29551;DHT22;16488;52.396;10.696;2024-01-30T02:58:08;0.20;99.90
29551;DHT22;16488;52.396;10.696;2024-01-30T03:00:34;0.30;99.90
29551;DHT22;16488;52.396;10.696;2024-01-30T03:03:00;0.30;99.90
29551;DHT22;16488;52.396;10.696;2024-01-30T03:05:25;0.30;99.90
29551;DHT22;16488;52.396;10.696;2024-01-30T03:07:51;0.30;99.90
29551;DHT22;16488;52.396;10.696;2024-01-30T03:10:17;0.30;99.90
29551;DHT22;16488;52.396;10.696;2024-01-30T03:12:42;0.40;99.90
29551;DHT22;16488;52.396;10.696;2024-01-30T03:15:08;0.50;99.90
29551;DHT22;16488;52.396;10.696;2024-01-30T03:17:35;0.50;99.90
29551;DHT22;16488;52.396;10.696;2024-01-30T03:20:02;0.50;99.90
29551;DHT22;16488;52.396;10.696;2024-01-30T03:22:29;0.40;99.90
29551;DHT22;16488;52.396;10.696;2024-01-30T03:24:54;0.50;99.90
29551;DHT22;16488;52.396;10.696;2024-01-30T03:27:20;0.50;99.90
29551;DHT22;16488;52.396;10.696;2024-01-30T03:29:45;0.40;99.90
29551;DHT22;16488;52.396;10.696;2024-01-30T03:32:11;0.50;99.90
29551;DHT22;16488;52.396;10.696;2024-01-30T03:34:36;0.50;99.90
29551;DHT22;16488;52.396;10.696;2024-01-30T03:37:02;0.60;99.90
29551;DHT22;16488;52.396;10.696;2024-01-30T03:39:28;0.70;99.90
29551;DHT22;16488;52.396;10.696;2024-01-30T03:41:53;0.70;99.90
29551;DHT22;16488;52.396;10.696;2024-01-30T03:44:19;0.70;99.90
29551;DHT22;16488;52.396;10.696;2024-01-30T03:46:44;0.60;99.90
29551;DHT22;16488;52.396;10.696;2024-01-30T03:49:10;0.70;99.90
29551;DHT22;16488;52.396;10.696;2024-01-30T03:51:36;0.90;99.90
29551;DHT22;16488;52.396;10.696;2024-01-30T03:54:01;0.90;99.90
29551;DHT22;16488;52.396;10.696;2024-01-30T03:56:27;1.00;99.90
29551;DHT22;16488;52.396;10.696;2024-01-30T03:58:52;1.10;99.90
29551;DHT22;16488;52.396;10.696;2024-01-30T04:01:18;1.20;99.90
29551;DHT22;16488;52.396;10.696;2024-01-30T04:03:44;1.20;99.90
29551;DHT22;16488;52.396;10.696;2024-01-30T04:06:10;1.20;99.90
29551;DHT22;16488;52.396;10.696;2024-01-30T04:08:36;1.10;99.90
29551;DHT22;16488;52.396;10.696;2024-01-30T04:11:05;1.00;99.90
29551;DHT22;16488;52.396;10.696;2024-01-30T04:13:31;0.80;99.90
29551;DHT22;16488;52.396;10.696;2024-01-30T04:15:57;0.70;99.90
29551;DHT22;16488;52.396;10.696;2024-01-30T04:18:22;0.60;99.90
29551;DHT22;16488;52.396;10.696;2024-01-30T04:20:48;0.60;99.90
29551;DHT22;16488;52.396;10.696;2024-01-30T04:23:13;0.50;99.90
29551;DHT22;16488;52.396;10.696;2024-01-30T04:25:39;0.50;99.90
29551;DHT22;16488;52.396;10.696;2024-01-30T04:28:04;0.50;99.90
29551;DHT22;16488;52.396;10.696;2024-01-30T04:30:30;0.40;99.90
29551;DHT22;16488;52.396;10.696;2024-01-30T04:32:55;0.40;99.90
29551;DHT22;16488;52.396;10.696;2024-01-30T04:35:21;0.30;99.90
29551;DHT22;16488;52.396;10.696;2024-01-30T04:37:51;0.40;99.90
29551;DHT22;16488;52.396;10.696;2024-01-30T04:40:17;0.40;99.90
29551;DHT22;16488;52.396;10.696;2024-01-30T04:42:42;0.50;99.90
29551;DHT22;16488;52.396;10.696;2024-01-30T04:45:08;0.50;99.90
29551;DHT22;16488;52.396;10.696;2024-01-30T04:47:33;0.60;99.90
29551;DHT22;16488;52.396;10.696;2024-01-30T04:49:59;0.60;99.90
29551;DHT22;16488;52.396;10.696;2024-01-30T04:52:25;0.70;99.90
29551;DHT22;16488;52.396;10.696;2024-01-30T04:54:50;0.80;99.90
29551;DHT22;16488;52.396;10.696;2024-01-30T04:57:16;0.70;99.90
29551;DHT22;16488;52.396;10.696;2024-01-30T04:59:41;0.80;99.90
29551;DHT22;16488;52.396;10.696;2024-01-30T05:02:07;0.90;99.90
29551;DHT22;16488;52.396;10.696;2024-01-30T05:04:32;0.90;99.90
29551;DHT22;16488;52.396;10.696;2024-01-30T05:06:58;0.90;99.90
29551;DHT22;16488;52.396;10.696;2024-01-30T05:09:23;1.00;99.90
29551;DHT22;16488;52.396;10.696;2024-01-30T05:11:49;0.90;99.90
29551;DHT22;16488;52.396;10.696;2024-01-30T05:14:14;0.90;99.90
29551;DHT22;16488;52.396;10.696;2024-01-30T05:16:40;0.80;99.90
29551;DHT22;16488;52.396;10.696;2024-01-30T05:19:06;0.80;99.90
29551;DHT22;16488;52.396;10.696;2024-01-30T05:21:32;0.80;99.90
29551;DHT22;16488;52.396;10.696;2024-01-30T05:23:57;0.80;99.90
29551;DHT22;16488;52.396;10.696;2024-01-30T05:26:23;0.80;99.90
29551;DHT22;16488;52.396;10.696;2024-01-30T05:28:48;0.80;99.90
29551;DHT22;16488;52.396;10.696;2024-01-30T05:31:14;0.80;99.90
29551;DHT22;16488;52.396;10.696;2024-01-30T05:33:40;0.80;99.90
29551;DHT22;16488;52.396;10.696;2024-01-30T05:36:05;0.80;99.90
29551;DHT22;16488;52.396;10.696;2024-01-30T05:38:31;0.80;99.90
29551;DHT22;16488;52.396;10.696;2024-01-30T05:40:57;0.80;99.90
29551;DHT22;16488;52.396;10.696;2024-01-30T05:43:26;0.80;99.90
29551;DHT22;16488;52.396;10.696;2024-01-30T05:45:51;0.80;99.90
29551;DHT22;16488;52.396;10.696;2024-01-30T05:48:17;0.80;99.90
29551;DHT22;16488;52.396;10.696;2024-01-30T05:50:43;0.80;99.90
29551;DHT22;16488;52.396;10.696;2024-01-30T05:53:09;0.80;99.90
29551;DHT22;16488;52.396;10.696;2024-01-30T05:55:34;0.80;99.90
29551;DHT22;16488;52.396;10.696;2024-01-30T05:58:00;0.80;99.90
29551;DHT22;16488;52.396;10.696;2024-01-30T06:00:25;0.80;99.90
29551;DHT22;16488;52.396;10.696;2024-01-30T06:02:51;0.70;99.90
29551;DHT22;16488;52.396;10.696;2024-01-30T06:05:16;0.70;99.90
29551;DHT22;16488;52.396;10.696;2024-01-30T06:07:42;0.80;99.90
29551;DHT22;16488;52.396;10.696;2024-01-30T06:10:08;0.80;99.90
29551;DHT22;16488;52.396;10.696;2024-01-30T06:12:34;0.90;99.90
29551;DHT22;16488;52.396;10.696;2024-01-30T06:15:00;0.80;99.90
29551;DHT22;16488;52.396;10.696;2024-01-30T06:17:25;0.80;99.90
29551;DHT22;16488;52.396;10.696;2024-01-30T06:19:51;0.70;99.90
29551;DHT22;16488;52.396;10.696;2024-01-30T06:22:16;0.80;99.90
29551;DHT22;16488;52.396;10.696;2024-01-30T06:24:42;0.70;99.90
29551;DHT22;16488;52.396;10.696;2024-01-30T06:27:10;0.70;99.90
29551;DHT22;16488;52.396;10.696;2024-01-30T06:29:36;0.70;99.90
29551;DHT22;16488;52.396;10.696;2024-01-30T06:32:01;0.70;99.90
29551;DHT22;16488;52.396;10.696;2024-01-30T06:34:27;0.80;99.90
29551;DHT22;16488;52.396;10.696;2024-01-30T06:36:52;0.80;99.90
29551;DHT22;16488;52.396;10.696;2024-01-30T06:39:18;0.90;99.90
29551;DHT22;16488;52.396;10.696;2024-01-30T06:41:44;0.90;99.90
29551;DHT22;16488;52.396;10.696;2024-01-30T06:44:11;0.80;99.90
29551;DHT22;16488;52.396;10.696;2024-01-30T06:46:37;0.80;99.90
29551;DHT22;16488;52.396;10.696;2024-01-30T06:49:03;0.80;99.90
29551;DHT22;16488;52.396;10.696;2024-01-30T06:51:29;0.70;99.90
29551;DHT22;16488;52.396;10.696;2024-01-30T06:53:54;0.70;99.90
29551;DHT22;16488;52.396;10.696;2024-01-30T06:56:20;0.70;99.90
29551;DHT22;16488;52.396;10.696;2024-01-30T06:58:47;0.70;99.90
29551;DHT22;16488;52.396;10.696;2024-01-30T07:01:12;0.70;99.90
29551;DHT22;16488;52.396;10.696;2024-01-30T07:03:38;0.70;99.90
29551;DHT22;16488;52.396;10.696;2024-01-30T07:06:03;0.70;99.90
29551;DHT22;16488;52.396;10.696;2024-01-30T07:08:29;0.80;99.90
29551;DHT22;16488;52.396;10.696;2024-01-30T07:10:55;0.80;99.90
29551;DHT22;16488;52.396;10.696;2024-01-30T07:13:21;0.80;99.90
29551;DHT22;16488;52.396;10.696;2024-01-30T07:15:47;0.80;99.90
29551;DHT22;16488;52.396;10.696;2024-01-30T07:18:12;0.80;99.90
29551;DHT22;16488;52.396;10.696;2024-01-30T07:20:39;0.80;99.90
29551;DHT22;16488;52.396;10.696;2024-01-30T07:23:11;0.80;99.90
29551;DHT22;16488;52.396;10.696;2024-01-30T07:25:39;0.80;99.90
29551;DHT22;16488;52.396;10.696;2024-01-30T07:28:07;0.90;99.90
29551;DHT22;16488;52.396;10.696;2024-01-30T07:30:33;0.90;99.90
29551;DHT22;16488;52.396;10.696;2024-01-30T07:32:59;0.90;99.90
29551;DHT22;16488;52.396;10.696;2024-01-30T07:35:24;0.80;99.90
29551;DHT22;16488;52.396;10.696;2024-01-30T07:37:50;0.80;99.90
29551;DHT22;16488;52.396;10.696;2024-01-30T07:40:16;0.90;99.90
29551;DHT22;16488;52.396;10.696;2024-01-30T07:42:42;1.10;99.90
29551;DHT22;16488;52.396;10.696;2024-01-30T07:45:08;1.50;99.90
29551;DHT22;16488;52.396;10.696;2024-01-30T07:47:33;1.50;99.90
29551;DHT22;16488;52.396;10.696;2024-01-30T07:49:59;1.30;99.90
29551;DHT22;16488;52.396;10.696;2024-01-30T07:52:24;1.30;99.90
29551;DHT22;16488;52.396;10.696;2024-01-30T07:54:50;1.30;99.90
29551;DHT22;16488;52.396;10.696;2024-01-30T07:57:16;1.40;99.90
29551;DHT22;16488;52.396;10.696;2024-01-30T07:59:44;1.30;99.90
29551;DHT22;16488;52.396;10.696;2024-01-30T08:02:11;1.40;99.90
29551;DHT22;16488;52.396;10.696;2024-01-30T08:04:37;1.50;99.90
29551;DHT22;16488;52.396;10.696;2024-01-30T08:07:02;1.60;99.90
29551;DHT22;16488;52.396;10.696;2024-01-30T08:09:28;1.60;99.90
29551;DHT22;16488;52.396;10.696;2024-01-30T08:11:53;1.70;99.90
29551;DHT22;16488;52.396;10.696;2024-01-30T08:14:19;1.90;99.90
29551;DHT22;16488;52.396;10.696;2024-01-30T08:16:45;2.00;99.90
29551;DHT22;16488;52.396;10.696;2024-01-30T08:19:10;2.10;99.90
29551;DHT22;16488;52.396;10.696;2024-01-30T08:21:36;2.20;99.90
29551;DHT22;16488;52.396;10.696;2024-01-30T08:24:05;2.30;99.90
29551;DHT22;16488;52.396;10.696;2024-01-30T08:26:33;2.30;99.90
29551;DHT22;16488;52.396;10.696;2024-01-30T08:29:00;2.50;99.90
29551;DHT22;16488;52.396;10.696;2024-01-30T08:31:26;2.60;99.90
29551;DHT22;16488;52.396;10.696;2024-01-30T08:33:51;2.80;99.90
29551;DHT22;16488;52.396;10.696;2024-01-30T08:36:17;2.90;99.90
29551;DHT22;16488;52.396;10.696;2024-01-30T08:38:43;3.00;99.90
29551;DHT22;16488;52.396;10.696;2024-01-30T08:41:08;3.10;99.90
29551;DHT22;16488;52.396;10.696;2024-01-30T08:43:36;3.10;99.90
29551;DHT22;16488;52.396;10.696;2024-01-30T08:46:02;3.20;99.90
29551;DHT22;16488;52.396;10.696;2024-01-30T08:48:28;3.30;99.90
29551;DHT22;16488;52.396;10.696;2024-01-30T08:50:53;3.40;99.90
29551;DHT22;16488;52.396;10.696;2024-01-30T08:53:19;3.50;99.90
29551;DHT22;16488;52.396;10.696;2024-01-30T08:55:45;3.70;99.90
29551;DHT22;16488;52.396;10.696;2024-01-30T08:58:10;4.00;99.90
29551;DHT22;16488;52.396;10.696;2024-01-30T09:00:36;4.20;99.90
29551;DHT22;16488;52.396;10.696;2024-01-30T09:03:02;4.40;99.90
29551;DHT22;16488;52.396;10.696;2024-01-30T09:05:27;4.60;99.90
29551;DHT22;16488;52.396;10.696;2024-01-30T09:07:53;4.60;99.90
29551;DHT22;16488;52.396;10.696;2024-01-30T09:10:19;4.90;99.90
29551;DHT22;16488;52.396;10.696;2024-01-30T09:12:44;5.10;99.90
29551;DHT22;16488;52.396;10.696;2024-01-30T09:15:10;5.30;99.90
29551;DHT22;16488;52.396;10.696;2024-01-30T09:17:35;5.40;99.90
29551;DHT22;16488;52.396;10.696;2024-01-30T09:20:01;5.50;99.90
29551;DHT22;16488;52.396;10.696;2024-01-30T09:22:27;5.50;99.90
29551;DHT22;16488;52.396;10.696;2024-01-30T09:24:52;5.70;99.90
29551;DHT22;16488;52.396;10.696;2024-01-30T09:27:18;5.80;99.90
29551;DHT22;16488;52.396;10.696;2024-01-30T09:29:44;5.90;99.90
29551;DHT22;16488;52.396;10.696;2024-01-30T09:32:09;6.10;99.90
29551;DHT22;16488;52.396;10.696;2024-01-30T09:34:35;6.20;99.90
29551;DHT22;16488;52.396;10.696;2024-01-30T09:37:00;6.40;99.90
29551;DHT22;16488;52.396;10.696;2024-01-30T09:39:26;6.60;99.90
29551;DHT22;16488;52.396;10.696;2024-01-30T09:44:36;6.70;99.90
29551;DHT22;16488;52.396;10.696;2024-01-30T09:47:03;6.80;99.90
29551;DHT22;16488;52.396;10.696;2024-01-30T09:49:34;6.80;99.90
29551;DHT22;16488;52.396;10.696;2024-01-30T09:52:00;6.90;99.90
29551;DHT22;16488;52.396;10.696;2024-01-30T09:54:26;7.00;99.90
29551;DHT22;16488;52.396;10.696;2024-01-30T09:56:51;7.10;99.90
29551;DHT22;16488;52.396;10.696;2024-01-30T09:59:17;7.40;99.90
29551;DHT22;16488;52.396;10.696;2024-01-30T10:01:42;7.70;99.90
29551;DHT22;16488;52.396;10.696;2024-01-30T10:04:08;7.90;99.90
29551;DHT22;16488;52.396;10.696;2024-01-30T10:06:34;8.30;99.90
29551;DHT22;16488;52.396;10.696;2024-01-30T10:09:00;8.70;99.90
29551;DHT22;16488;52.396;10.696;2024-01-30T10:11:25;9.10;99.90
29551;DHT22;16488;52.396;10.696;2024-01-30T10:13:51;9.50;99.90
29551;DHT22;16488;52.396;10.696;2024-01-30T10:16:16;10.00;99.90
29551;DHT22;16488;52.396;10.696;2024-01-30T10:18:42;10.60;99.90
29551;DHT22;16488;52.396;10.696;2024-01-30T10:21:08;11.00;99.90
29551;DHT22;16488;52.396;10.696;2024-01-30T10:23:34;11.40;99.90
29551;DHT22;16488;52.396;10.696;2024-01-30T10:25:59;11.80;99.90
29551;DHT22;16488;52.396;10.696;2024-01-30T10:28:28;11.90;99.90
29551;DHT22;16488;52.396;10.696;2024-01-30T10:30:59;11.90;99.90
29551;DHT22;16488;52.396;10.696;2024-01-30T10:33:25;12.00;99.90
29551;DHT22;16488;52.396;10.696;2024-01-30T10:35:51;12.00;99.90
29551;DHT22;16488;52.396;10.696;2024-01-30T10:38:17;11.90;99.90
29551;DHT22;16488;52.396;10.696;2024-01-30T10:40:45;11.70;99.90
29551;DHT22;16488;52.396;10.696;2024-01-30T10:43:10;11.40;99.90
29551;DHT22;16488;52.396;10.696;2024-01-30T10:45:36;11.40;99.90
29551;DHT22;16488;52.396;10.696;2024-01-30T10:48:03;11.60;99.90
29551;DHT22;16488;52.396;10.696;2024-01-30T10:50:30;11.80;99.90
29551;DHT22;16488;52.396;10.696;2024-01-30T10:52:56;11.90;99.90
29551;DHT22;16488;52.396;10.696;2024-01-30T10:55:22;11.90;99.90
29551;DHT22;16488;52.396;10.696;2024-01-30T10:57:49;12.00;99.90
29551;DHT22;16488;52.396;10.696;2024-01-30T11:00:15;12.10;99.90
29551;DHT22;16488;52.396;10.696;2024-01-30T11:02:41;12.00;99.90
29551;DHT22;16488;52.396;10.696;2024-01-30T11:05:09;12.10;99.90
29551;DHT22;16488;52.396;10.696;2024-01-30T11:07:34;12.10;99.90
29551;DHT22;16488;52.396;10.696;2024-01-30T11:10:02;11.90;99.90
29551;DHT22;16488;52.396;10.696;2024-01-30T11:12:30;11.90;99.90
29551;DHT22;16488;52.396;10.696;2024-01-30T11:15:02;11.90;99.90
29551;DHT22;16488;52.396;10.696;2024-01-30T11:17:39;11.70;99.90
29551;DHT22;16488;52.396;10.696;2024-01-30T11:20:09;11.70;99.90
29551;DHT22;16488;52.396;10.696;2024-01-30T11:22:35;11.50;99.90
29551;DHT22;16488;52.396;10.696;2024-01-30T11:25:01;11.50;99.90
29551;DHT22;16488;52.396;10.696;2024-01-30T11:27:29;11.40;99.90
29551;DHT22;16488;52.396;10.696;2024-01-30T11:30:00;11.40;99.90
29551;DHT22;16488;52.396;10.696;2024-01-30T11:32:26;11.30;99.90
29551;DHT22;16488;52.396;10.696;2024-01-30T11:34:51;11.40;99.90
29551;DHT22;16488;52.396;10.696;2024-01-30T11:37:17;11.40;99.90
29551;DHT22;16488;52.396;10.696;2024-01-30T11:39:45;11.40;99.90
29551;DHT22;16488;52.396;10.696;2024-01-30T11:42:11;11.50;99.90
29551;DHT22;16488;52.396;10.696;2024-01-30T11:44:36;11.50;99.90
29551;DHT22;16488;52.396;10.696;2024-01-30T11:47:02;11.40;99.90
29551;DHT22;16488;52.396;10.696;2024-01-30T11:49:28;11.40;99.90
29551;DHT22;16488;52.396;10.696;2024-01-30T11:51:54;11.40;99.90
29551;DHT22;16488;52.396;10.696;2024-01-30T11:54:20;11.30;99.90
29551;DHT22;16488;52.396;10.696;2024-01-30T11:56:45;11.40;99.90
29551;DHT22;16488;52.396;10.696;2024-01-30T11:59:11;11.40;99.90
29551;DHT22;16488;52.396;10.696;2024-01-30T12:01:36;11.30;99.90
29551;DHT22;16488;52.396;10.696;2024-01-30T12:04:02;11.30;99.90
29551;DHT22;16488;52.396;10.696;2024-01-30T12:06:28;11.20;99.90
29551;DHT22;16488;52.396;10.696;2024-01-30T12:11:23;10.90;99.90
29551;DHT22;16488;52.396;10.696;2024-01-30T12:13:49;10.90;99.90
29551;DHT22;16488;52.396;10.696;2024-01-30T12:16:14;10.90;99.90
29551;DHT22;16488;52.396;10.696;2024-01-30T12:18:40;10.90;99.90
29551;DHT22;16488;52.396;10.696;2024-01-30T12:21:06;11.00;99.90
29551;DHT22;16488;52.396;10.696;2024-01-30T12:23:33;10.90;99.90
29551;DHT22;16488;52.396;10.696;2024-01-30T12:25:58;11.00;99.90
29551;DHT22;16488;52.396;10.696;2024-01-30T12:28:24;10.90;99.90
29551;DHT22;16488;52.396;10.696;2024-01-30T12:30:50;10.80;99.90
29551;DHT22;16488;52.396;10.696;2024-01-30T12:33:16;10.80;99.90
29551;DHT22;16488;52.396;10.696;2024-01-30T12:35:45;10.80;99.90
29551;DHT22;16488;52.396;10.696;2024-01-30T12:38:10;10.90;99.90
29551;DHT22;16488;52.396;10.696;2024-01-30T12:40:36;10.90;99.90
29551;DHT22;16488;52.396;10.696;2024-01-30T12:43:01;11.00;99.90
29551;DHT22;16488;52.396;10.696;2024-01-30T12:45:27;11.10;99.90
29551;DHT22;16488;52.396;10.696;2024-01-30T12:47:53;11.20;99.90
29551;DHT22;16488;52.396;10.696;2024-01-30T12:50:18;11.10;99.90
29551;DHT22;16488;52.396;10.696;2024-01-30T12:52:44;11.20;99.90
29551;DHT22;16488;52.396;10.696;2024-01-30T12:55:10;11.30;99.90
29551;DHT22;16488;52.396;10.696;2024-01-30T12:57:36;11.40;99.90
29551;DHT22;16488;52.396;10.696;2024-01-30T13:00:01;11.40;99.90
29551;DHT22;16488;52.396;10.696;2024-01-30T13:02:27;11.50;99.90
29551;DHT22;16488;52.396;10.696;2024-01-30T13:05:00;11.60;99.90
29551;DHT22;16488;52.396;10.696;2024-01-30T13:07:25;11.50;99.90
29551;DHT22;16488;52.396;10.696;2024-01-30T13:09:51;11.50;99.90
29551;DHT22;16488;52.396;10.696;2024-01-30T13:12:16;11.50;99.90
29551;DHT22;16488;52.396;10.696;2024-01-30T13:14:42;11.40;99.90
29551;DHT22;16488;52.396;10.696;2024-01-30T13:17:08;11.40;99.90
29551;DHT22;16488;52.396;10.696;2024-01-30T13:19:34;11.50;99.90
29551;DHT22;16488;52.396;10.696;2024-01-30T13:21:59;11.70;99.90
29551;DHT22;16488;52.396;10.696;2024-01-30T13:24:25;11.90;99.90
29551;DHT22;16488;52.396;10.696;2024-01-30T13:26:50;12.10;99.90
29551;DHT22;16488;52.396;10.696;2024-01-30T13:29:16;12.00;99.90
29551;DHT22;16488;52.396;10.696;2024-01-30T13:31:42;11.90;99.90
29551;DHT22;16488;52.396;10.696;2024-01-30T13:34:09;12.00;99.90
29551;DHT22;16488;52.396;10.696;2024-01-30T13:36:35;11.90;99.90
29551;DHT22;16488;52.396;10.696;2024-01-30T13:39:00;11.90;99.90
29551;DHT22;16488;52.396;10.696;2024-01-30T13:41:26;11.80;99.90
29551;DHT22;16488;52.396;10.696;2024-01-30T13:43:51;11.80;99.90
29551;DHT22;16488;52.396;10.696;2024-01-30T13:46:17;11.50;99.90
29551;DHT22;16488;52.396;10.696;2024-01-30T13:48:43;11.40;99.90
29551;DHT22;16488;52.396;10.696;2024-01-30T13:51:08;11.20;99.90
29551;DHT22;16488;52.396;10.696;2024-01-30T13:53:34;11.10;99.90
29551;DHT22;16488;52.396;10.696;2024-01-30T13:56:00;11.10;99.90
29551;DHT22;16488;52.396;10.696;2024-01-30T13:58:25;11.10;99.90
29551;DHT22;16488;52.396;10.696;2024-01-30T14:00:51;11.00;99.90
29551;DHT22;16488;52.396;10.696;2024-01-30T14:03:16;11.00;99.90
29551;DHT22;16488;52.396;10.696;2024-01-30T14:05:42;10.90;99.90
29551;DHT22;16488;52.396;10.696;2024-01-30T14:08:09;10.90;99.90
29551;DHT22;16488;52.396;10.696;2024-01-30T14:10:34;10.90;99.90
29551;DHT22;16488;52.396;10.696;2024-01-30T14:13:00;10.90;99.90
29551;DHT22;16488;52.396;10.696;2024-01-30T14:15:25;10.80;99.90
29551;DHT22;16488;52.396;10.696;2024-01-30T14:17:51;10.90;99.90
29551;DHT22;16488;52.396;10.696;2024-01-30T14:20:17;10.90;99.90
29551;DHT22;16488;52.396;10.696;2024-01-30T14:22:42;10.90;99.90
29551;DHT22;16488;52.396;10.696;2024-01-30T14:25:08;10.90;99.90
29551;DHT22;16488;52.396;10.696;2024-01-30T14:27:34;10.80;99.90
29551;DHT22;16488;52.396;10.696;2024-01-30T14:30:00;10.80;99.90
29551;DHT22;16488;52.396;10.696;2024-01-30T14:32:25;10.80;99.90
29551;DHT22;16488;52.396;10.696;2024-01-30T14:34:51;10.70;99.90
29551;DHT22;16488;52.396;10.696;2024-01-30T14:37:18;10.70;99.90
29551;DHT22;16488;52.396;10.696;2024-01-30T14:39:43;10.60;99.90
29551;DHT22;16488;52.396;10.696;2024-01-30T14:42:09;10.50;99.90
29551;DHT22;16488;52.396;10.696;2024-01-30T14:44:35;10.50;99.90
29551;DHT22;16488;52.396;10.696;2024-01-30T14:47:00;10.50;99.90
29551;DHT22;16488;52.396;10.696;2024-01-30T14:49:27;10.50;99.90
29551;DHT22;16488;52.396;10.696;2024-01-30T14:51:53;10.40;99.90
29551;DHT22;16488;52.396;10.696;2024-01-30T14:54:19;10.40;99.90
29551;DHT22;16488;52.396;10.696;2024-01-30T14:56:44;10.40;99.90
29551;DHT22;16488;52.396;10.696;2024-01-30T14:59:10;10.40;99.90
29551;DHT22;16488;52.396;10.696;2024-01-30T15:01:36;10.40;99.90
29551;DHT22;16488;52.396;10.696;2024-01-30T15:04:01;10.40;99.90
29551;DHT22;16488;52.396;10.696;2024-01-30T15:06:27;10.40;99.90
29551;DHT22;16488;52.396;10.696;2024-01-30T15:08:53;10.40;99.90
29551;DHT22;16488;52.396;10.696;2024-01-30T15:11:19;10.30;99.90
29551;DHT22;16488;52.396;10.696;2024-01-30T15:13:44;10.30;99.90
29551;DHT22;16488;52.396;10.696;2024-01-30T15:16:10;10.30;99.90
29551;DHT22;16488;52.396;10.696;2024-01-30T15:18:35;10.30;99.90
29551;DHT22;16488;52.396;10.696;2024-01-30T15:21:01;10.30;99.90